Time;durP1;ratioP1;P1;durP2;ratioP2;P2;SDS_P1;SDS_P2;PMS_P1;PMS_P2;Temp;Humidity;BMP_temperature;BMP_pressure;BME280_temperature;BME280_humidity;BME280_pressure;Samples;Min_cycle;Max_cycle;Signal;HPM_P1;HPM_P2
2022/06/10 00:00:43;;;;;;;1.38;1.00;;;;;;;;;;4976452;28;20019;-80
2022/06/10 00:03:10;;;;;;;1.60;1.13;;;;;;;;;;4959703;28;20031;-81
2022/06/10 00:05:36;;;;;;;2.65;1.25;;;;;;;;;;4977043;28;20027;-81
2022/06/10 00:08:13;;;;;;;3.38;1.00;;;;;;;;;;4959603;28;20041;-80
2022/06/10 00:10:39;;;;;;;1.77;1.02;;;;;;;;;;4959556;28;20501;-80
2022/06/10 00:13:05;;;;;;;3.17;1.35;;;;;;;;;;4976978;28;20035;-80
2022/06/10 00:15:31;;;;;;;4.60;1.42;;;;;;;;;;4977501;28;20114;-79
2022/06/10 00:17:58;;;;;;;2.33;1.20;;;;;;;;;;4975765;28;20030;-80
2022/06/10 00:20:27;;;;;;;3.47;1.20;;;;;;;;;;4959857;28;20085;-80
2022/06/10 00:22:52;;;;;;;7.53;1.80;;;;;;;;;;4975954;28;20022;-79
2022/06/10 00:25:19;;;;;;;2.30;1.20;;;;;;;;;;4976856;28;20040;-79
2022/06/10 00:27:44;;;;;;;2.42;1.10;;;;;;;;;;4975442;28;20027;-79
2022/06/10 00:30:10;;;;;;;3.63;1.67;;;;;;;;;;4974956;28;20472;-79
2022/06/10 00:32:36;;;;;;;3.28;1.30;;;;;;;;;;4976864;28;20430;-79
2022/06/10 00:35:01;;;;;;;2.83;1.13;;;;;;;;;;4975192;28;20023;-79
2022/06/10 00:37:27;;;;;;;2.15;1.13;;;;;;;;;;4975568;28;20039;-80
2022/06/10 00:39:52;;;;;;;2.25;1.30;;;;;;;;;;4975171;28;20030;-79
2022/06/10 00:42:18;;;;;;;1.48;0.95;;;;;;;;;;4974810;28;20058;-79
2022/06/10 00:44:49;;;;;;;2.85;1.83;;;;;;;;;;4975131;28;20126;-80
2022/06/10 00:47:21;;;;;;;2.85;1.20;;;;;;;;;;4975312;28;20101;-80
2022/06/10 00:49:51;;;;;;;3.35;1.20;;;;;;;;;;4959147;28;20514;-80
2022/06/10 00:52:29;;;;;;;3.72;1.52;;;;;;;;;;4975459;28;20031;-80
2022/06/10 00:54:55;;;;;;;1.88;1.05;;;;;;;;;;4975142;28;20030;-80
2022/06/10 00:57:24;;;;;;;2.65;1.25;;;;;;;;;;4959122;28;20042;-80
2022/06/10 00:59:58;;;;;;;5.03;1.50;;;;;;;;;;4975207;28;20085;-80
2022/06/10 01:02:30;;;;;;;3.85;1.50;;;;;;;;;;4974737;28;20026;-79
2022/06/10 01:04:58;;;;;;;2.50;1.40;;;;;;;;;;4976238;28;20113;-80
2022/06/10 01:07:51;;;;;;;2.28;1.30;;;;;;;;;;4959236;28;20061;-80
2022/06/10 01:10:18;;;;;;;2.78;1.38;;;;;;;;;;4968709;28;20059;-80
2022/06/10 01:12:55;;;;;;;4.32;1.55;;;;;;;;;;4958336;28;20033;-80
2022/06/10 01:15:45;;;;;;;2.38;1.27;;;;;;;;;;4976139;28;20037;-80
2022/06/10 01:18:13;;;;;;;5.97;1.35;;;;;;;;;;4975738;28;20023;-80
2022/06/10 01:20:54;;;;;;;4.60;1.70;;;;;;;;;;4976240;28;20101;-79
2022/06/10 01:23:34;;;;;;;3.42;1.20;;;;;;;;;;4975901;28;20030;-79
2022/06/10 01:26:31;;;;;;;4.07;1.42;;;;;;;;;;4974344;28;20026;-79
2022/06/10 01:29:08;;;;;;;2.58;1.17;;;;;;;;;;4975828;28;20031;-79
2022/06/10 01:31:38;;;;;;;1.88;1.17;;;;;;;;;;4975689;28;20033;-79
2022/06/10 01:34:37;;;;;;;3.40;1.33;;;;;;;;;;4974393;28;20402;-79
2022/06/10 01:37:16;;;;;;;2.55;1.30;;;;;;;;;;4974292;28;20098;-79
2022/06/10 01:39:50;;;;;;;2.70;1.27;;;;;;;;;;4974215;28;20106;-79
2022/06/10 01:42:50;;;;;;;4.45;1.67;;;;;;;;;;4974596;28;20495;-80
2022/06/10 01:45:27;;;;;;;3.97;1.27;;;;;;;;;;4927210;28;20097;-79
2022/06/10 01:48:23;;;;;;;4.35;1.33;;;;;;;;;;4974865;28;20033;-79
2022/06/10 01:50:58;;;;;;;5.00;1.35;;;;;;;;;;4973723;28;20023;-79
2022/06/10 01:53:54;;;;;;;1.95;1.10;;;;;;;;;;4974913;28;20392;-80
2022/06/10 01:56:24;;;;;;;3.88;1.58;;;;;;;;;;4974650;28;20054;-79
2022/06/10 01:58:56;;;;;;;2.35;1.23;;;;;;;;;;4973649;28;20038;-80
2022/06/10 02:01:27;;;;;;;2.78;1.40;;;;;;;;;;4957413;28;20387;-78
2022/06/10 02:03:54;;;;;;;3.15;1.42;;;;;;;;;;4973898;28;20023;-78
2022/06/10 02:06:44;;;;;;;3.15;1.55;;;;;;;;;;4973674;28;20031;-80
2022/06/10 02:09:13;;;;;;;2.85;1.30;;;;;;;;;;4975062;28;20153;-79
2022/06/10 02:11:43;;;;;;;4.43;1.45;;;;;;;;;;4974065;28;20085;-78
2022/06/10 02:14:15;;;;;;;2.08;1.30;;;;;;;;;;4973664;28;20030;-78
2022/06/10 02:16:44;;;;;;;3.75;1.30;;;;;;;;;;4973467;28;20368;-78
2022/06/10 02:19:30;;;;;;;1.60;1.10;;;;;;;;;;4973411;28;20537;-78
2022/06/10 02:22:00;;;;;;;3.45;1.30;;;;;;;;;;4973592;28;20532;-80
2022/06/10 02:24:42;;;;;;;2.13;1.10;;;;;;;;;;4957149;28;20142;-80
2022/06/10 02:27:11;;;;;;;1.77;1.30;;;;;;;;;;4974779;28;20023;-80
2022/06/10 02:29:45;;;;;;;3.53;1.42;;;;;;;;;;4973269;28;20476;-79
2022/06/10 02:32:10;;;;;;;2.78;1.27;;;;;;;;;;4973211;28;20077;-79
2022/06/10 02:34:36;;;;;;;3.03;1.50;;;;;;;;;;4957048;28;20034;-81
2022/06/10 02:37:09;;;;;;;1.95;1.10;;;;;;;;;;4973486;28;20122;-81
2022/06/10 02:39:38;;;;;;;1.27;1.02;;;;;;;;;;4973421;28;20066;-80
2022/06/10 02:42:09;;;;;;;3.28;1.50;;;;;;;;;;4972693;28;20495;-81
2022/06/10 02:45:00;;;;;;;2.47;1.27;;;;;;;;;;4974708;28;20049;-81
2022/06/10 02:47:28;;;;;;;3.88;1.52;;;;;;;;;;4972841;28;20027;-79
2022/06/10 02:49:54;;;;;;;4.47;1.45;;;;;;;;;;4974516;28;20027;-81
2022/06/10 02:52:21;;;;;;;2.50;1.40;;;;;;;;;;4972903;28;20033;-81
2022/06/10 02:54:46;;;;;;;2.47;1.63;;;;;;;;;;4976052;28;20117;-81
2022/06/10 02:57:18;;;;;;;4.60;1.40;;;;;;;;;;4960901;28;20058;-80
2022/06/10 03:02:39;;;;;;;3.38;1.60;;;;;;;;;;4963788;28;20579;-80
2022/06/10 03:05:21;;;;;;;5.18;1.48;;;;;;;;;;4976859;28;20041;-79
2022/06/10 03:08:12;;;;;;;4.75;1.40;;;;;;;;;;4976832;28;20125;-80
2022/06/10 03:10:48;;;;;;;4.38;1.40;;;;;;;;;;4976590;28;20093;-78
2022/06/10 03:13:38;;;;;;;3.00;1.38;;;;;;;;;;4978077;28;20026;-81
2022/06/10 03:16:10;;;;;;;3.25;1.20;;;;;;;;;;4977856;28;20105;-80
2022/06/10 03:19:00;;;;;;;2.47;1.13;;;;;;;;;;4960280;28;20029;-79
2022/06/10 03:21:44;;;;;;;3.33;1.80;;;;;;;;;;4976662;28;20387;-80
2022/06/10 03:24:24;;;;;;;2.78;1.15;;;;;;;;;;4976247;28;20026;-81
2022/06/10 03:26:59;;;;;;;1.73;1.20;;;;;;;;;;4976419;28;20027;-80
2022/06/10 03:29:50;;;;;;;2.15;1.20;;;;;;;;;;4976484;28;20475;-80
2022/06/10 03:32:25;;;;;;;2.78;1.27;;;;;;;;;;4976609;28;20038;-80
2022/06/10 03:34:56;;;;;;;3.60;1.50;;;;;;;;;;4977786;28;20442;-80
2022/06/10 03:37:22;;;;;;;2.25;1.15;;;;;;;;;;4976595;28;20026;-80
2022/06/10 03:39:56;;;;;;;3.10;1.23;;;;;;;;;;4976184;28;20115;-80
2022/06/10 03:42:23;;;;;;;2.10;1.10;;;;;;;;;;4975890;28;20113;-80
2022/06/10 03:44:52;;;;;;;2.13;1.23;;;;;;;;;;4960049;28;20364;-80
2022/06/10 03:47:25;;;;;;;1.40;1.10;;;;;;;;;;4975904;28;20443;-80
2022/06/10 03:50:01;;;;;;;2.03;1.20;;;;;;;;;;4976252;28;20057;-81
2022/06/10 03:52:30;;;;;;;1.67;1.20;;;;;;;;;;4976194;28;20448;-80
2022/06/10 03:54:55;;;;;;;3.83;1.40;;;;;;;;;;4976041;28;20039;-80
2022/06/10 03:57:21;;;;;;;2.22;1.40;;;;;;;;;;4976150;28;20089;-78
2022/06/10 03:59:47;;;;;;;3.25;1.30;;;;;;;;;;4976381;28;20117;-79
2022/06/10 04:02:12;;;;;;;1.67;1.10;;;;;;;;;;4976255;28;20030;-79
2022/06/10 04:04:38;;;;;;;3.40;1.30;;;;;;;;;;4975707;28;20049;-79
2022/06/10 04:07:04;;;;;;;3.30;1.40;;;;;;;;;;4975421;28;20054;-80
2022/06/10 04:09:30;;;;;;;2.15;1.20;;;;;;;;;;4975826;28;20081;-80
2022/06/10 04:11:55;;;;;;;2.22;1.13;;;;;;;;;;4975826;28;20462;-79
2022/06/10 04:14:22;;;;;;;2.08;1.30;;;;;;;;;;4975715;28;20058;-79
2022/06/10 04:16:48;;;;;;;1.92;1.15;;;;;;;;;;4975757;28;20034;-79
2022/06/10 04:19:13;;;;;;;3.22;1.30;;;;;;;;;;4976958;28;20035;-80
2022/06/10 04:21:39;;;;;;;4.30;1.42;;;;;;;;;;4959803;28;20106;-80
2022/06/10 04:24:04;;;;;;;2.45;1.30;;;;;;;;;;4976912;28;20105;-80
2022/06/10 04:26:30;;;;;;;2.33;1.20;;;;;;;;;;4959367;28;20109;-79
2022/06/10 04:28:55;;;;;;;4.57;1.23;;;;;;;;;;4975771;28;20500;-79
2022/06/10 04:31:21;;;;;;;4.78;1.27;;;;;;;;;;4975650;28;20077;-83
2022/06/10 04:33:46;;;;;;;2.65;1.45;;;;;;;;;;4975714;28;20402;-83
2022/06/10 04:36:15;;;;;;;4.07;1.52;;;;;;;;;;4977047;28;20062;-82
2022/06/10 04:38:40;;;;;;;2.85;1.50;;;;;;;;;;4976085;28;20027;-82
2022/06/10 04:41:06;;;;;;;2.80;1.10;;;;;;;;;;4976714;28;20082;-81
2022/06/10 04:43:33;;;;;;;3.78;1.38;;;;;;;;;;4959289;28;20535;-81
2022/06/10 04:46:01;;;;;;;2.65;1.20;;;;;;;;;;4975451;28;20031;-80
2022/06/10 04:48:27;;;;;;;3.30;1.30;;;;;;;;;;4959522;28;20042;-80
2022/06/10 04:50:53;;;;;;;5.22;1.40;;;;;;;;;;4959198;28;20447;-81
2022/06/10 04:53:18;;;;;;;14.98;1.83;;;;;;;;;;4959236;28;20030;-82
2022/06/10 04:55:44;;;;;;;2.03;1.17;;;;;;;;;;4959356;28;20031;-81
2022/06/10 04:58:10;;;;;;;1.67;1.15;;;;;;;;;;4976444;28;20031;-81
2022/06/10 05:00:39;;;;;;;4.82;1.20;;;;;;;;;;4959923;28;20042;-79
2022/06/10 05:03:05;;;;;;;4.53;1.48;;;;;;;;;;4975526;28;20030;-80
2022/06/10 05:05:31;;;;;;;3.53;1.10;;;;;;;;;;4975316;28;20033;-80
2022/06/10 05:07:57;;;;;;;3.38;1.23;;;;;;;;;;4958945;28;20030;-80
2022/06/10 05:10:23;;;;;;;2.35;1.20;;;;;;;;;;4959514;28;20042;-81
2022/06/10 05:12:50;;;;;;;4.45;1.20;;;;;;;;;;4958666;28;20479;-81
2022/06/10 05:15:19;;;;;;;4.50;1.75;;;;;;;;;;4958930;28;20038;-81
2022/06/10 05:17:44;;;;;;;2.35;1.45;;;;;;;;;;4975640;28;20090;-81
2022/06/10 05:20:15;;;;;;;2.75;1.30;;;;;;;;;;4977886;28;20031;-80
2022/06/10 05:22:41;;;;;;;3.42;1.30;;;;;;;;;;4977219;28;20050;-80
2022/06/10 05:25:07;;;;;;;4.50;1.30;;;;;;;;;;4961904;28;20034;-81
2022/06/10 05:27:32;;;;;;;2.45;1.27;;;;;;;;;;4976685;28;20041;-81
2022/06/10 05:29:57;;;;;;;2.72;1.58;;;;;;;;;;4976572;28;20034;-81
2022/06/10 05:32:23;;;;;;;3.17;1.48;;;;;;;;;;4977062;28;20035;-81
2022/06/10 05:34:48;;;;;;;4.68;1.50;;;;;;;;;;4978138;28;20503;-81
2022/06/10 05:37:17;;;;;;;2.47;1.08;;;;;;;;;;4978200;28;20027;-80
2022/06/10 05:39:43;;;;;;;2.55;1.10;;;;;;;;;;4978227;28;20053;-81
2022/06/10 05:42:10;;;;;;;2.00;1.13;;;;;;;;;;4977429;28;20510;-81
2022/06/10 05:44:38;;;;;;;2.70;1.23;;;;;;;;;;4976339;28;20031;-81
2022/06/10 05:47:07;;;;;;;1.83;1.13;;;;;;;;;;4975998;28;20406;-80
2022/06/10 05:49:33;;;;;;;1.85;0.93;;;;;;;;;;4960836;28;20027;-81
2022/06/10 05:51:59;;;;;;;1.50;1.00;;;;;;;;;;4960382;28;20031;-80
2022/06/10 05:54:25;;;;;;;2.17;1.20;;;;;;;;;;4976396;28;20549;-81
2022/06/10 05:56:50;;;;;;;3.70;1.40;;;;;;;;;;4977758;28;20038;-81
2022/06/10 05:59:15;;;;;;;2.92;1.52;;;;;;;;;;4977924;28;20039;-81
2022/06/10 06:01:41;;;;;;;4.75;1.35;;;;;;;;;;4960488;28;20030;-81
2022/06/10 06:04:06;;;;;;;2.22;1.05;;;;;;;;;;4975801;28;20129;-81
2022/06/10 06:06:32;;;;;;;3.35;1.05;;;;;;;;;;4979034;28;20034;-81
2022/06/10 06:08:58;;;;;;;3.72;1.17;;;;;;;;;;4977484;28;20054;-81
2022/06/10 06:11:24;;;;;;;1.92;1.30;;;;;;;;;;4976830;28;20447;-81
2022/06/10 06:13:49;;;;;;;2.25;1.25;;;;;;;;;;4976234;28;20125;-81
2022/06/10 06:16:16;;;;;;;3.63;1.00;;;;;;;;;;4977743;28;20030;-82
2022/06/10 06:18:42;;;;;;;2.60;1.52;;;;;;;;;;4976829;28;20069;-83
2022/06/10 06:21:08;;;;;;;2.13;1.05;;;;;;;;;;4976350;28;20463;-84
2022/06/10 06:23:33;;;;;;;2.65;0.90;;;;;;;;;;4977767;28;20077;-82
2022/06/10 06:25:59;;;;;;;3.75;1.40;;;;;;;;;;4957732;28;20026;-83
2022/06/10 06:28:25;;;;;;;3.85;1.48;;;;;;;;;;4974526;28;20031;-82
2022/06/10 06:30:50;;;;;;;2.20;1.52;;;;;;;;;;4973476;28;20398;-84
2022/06/10 06:33:16;;;;;;;4.75;1.05;;;;;;;;;;4941630;28;20058;-82
2022/06/10 06:35:45;;;;;;;2.00;1.15;;;;;;;;;;4975085;28;20101;-80
2022/06/10 06:38:11;;;;;;;4.07;1.30;;;;;;;;;;4974620;28;20119;-82
2022/06/10 06:40:37;;;;;;;3.17;1.40;;;;;;;;;;4957632;28;20038;-84
2022/06/10 06:43:02;;;;;;;5.20;1.67;;;;;;;;;;4941541;28;20146;-82
2022/06/10 06:45:28;;;;;;;3.92;1.50;;;;;;;;;;4957378;28;20455;-80
2022/06/10 06:47:54;;;;;;;3.50;1.48;;;;;;;;;;4957338;28;20062;-81
2022/06/10 06:50:23;;;;;;;2.85;1.70;;;;;;;;;;4973388;28;20038;-81
2022/06/10 06:52:49;;;;;;;4.88;1.40;;;;;;;;;;4974790;28;20058;-83
2022/06/10 06:55:15;;;;;;;2.20;1.08;;;;;;;;;;4973753;28;20065;-82
2022/06/10 06:57:41;;;;;;;6.57;1.77;;;;;;;;;;4973339;28;20027;-81
2022/06/10 07:00:08;;;;;;;2.30;1.38;;;;;;;;;;4957456;28;20462;-81
2022/06/10 07:02:35;;;;;;;4.22;1.40;;;;;;;;;;4957251;28;20114;-83
2022/06/10 07:05:00;;;;;;;4.28;1.40;;;;;;;;;;4957405;28;20026;-82
2022/06/10 07:07:26;;;;;;;10.60;1.75;;;;;;;;;;4973451;28;20170;-83
2022/06/10 07:09:51;;;;;;;3.78;1.42;;;;;;;;;;4973303;28;20156;-83
2022/06/10 07:12:17;;;;;;;3.97;1.48;;;;;;;;;;4974636;28;20030;-82
2022/06/10 07:14:42;;;;;;;4.65;1.42;;;;;;;;;;4973022;28;20035;-82
2022/06/10 07:17:08;;;;;;;5.00;1.70;;;;;;;;;;4941167;28;20054;-83
2022/06/10 07:19:34;;;;;;;8.18;2.50;;;;;;;;;;4974504;28;20026;-81
2022/06/10 07:21:59;;;;;;;5.28;1.20;;;;;;;;;;4975427;28;20034;-79
2022/06/10 07:24:25;;;;;;;4.10;1.45;;;;;;;;;;4973874;28;20110;-83
2022/06/10 07:26:51;;;;;;;4.95;1.58;;;;;;;;;;4973018;28;20456;-82
2022/06/10 07:29:17;;;;;;;10.23;1.70;;;;;;;;;;4957376;28;20126;-82
2022/06/10 07:31:44;;;;;;;6.60;1.40;;;;;;;;;;4957275;28;20117;-80
2022/06/10 07:34:10;;;;;;;13.07;1.45;;;;;;;;;;4974391;28;20077;-81
2022/06/10 07:36:35;;;;;;;9.70;2.08;;;;;;;;;;4974235;28;20031;-81
2022/06/10 07:39:01;;;;;;;3.67;1.30;;;;;;;;;;4973307;28;20054;-80
2022/06/10 07:44:10;;;;;;;;;;;;;;;;;;4977895;28;20053;-80
2022/06/10 07:46:35;;;;;;;4.15;1.35;;;;;;;;;;4978291;28;19922;-80
2022/06/10 07:49:01;;;;;;;2.13;1.00;;;;;;;;;;4977637;28;20082;-80
2022/06/10 07:51:26;;;;;;;9.18;1.67;;;;;;;;;;4977693;28;20023;-83
2022/06/10 07:53:52;;;;;;;5.30;1.23;;;;;;;;;;4977812;28;20031;-80
2022/06/10 07:56:20;;;;;;;7.28;1.83;;;;;;;;;;4960822;28;20099;-79
2022/06/10 07:58:46;;;;;;;6.05;1.30;;;;;;;;;;4977041;28;20456;-82
2022/06/10 08:01:11;;;;;;;4.88;1.67;;;;;;;;;;4960574;28;20034;-81
2022/06/10 08:03:37;;;;;;;5.75;1.30;;;;;;;;;;4960251;28;20057;-82
2022/06/10 08:06:03;;;;;;;7.00;1.50;;;;;;;;;;4960443;28;20118;-82
2022/06/10 08:08:29;;;;;;;3.45;1.30;;;;;;;;;;4977534;28;20031;-81
2022/06/10 08:10:55;;;;;;;7.05;1.55;;;;;;;;;;4976282;28;20057;-82
2022/06/10 08:13:21;;;;;;;4.45;1.88;;;;;;;;;;4959917;28;20030;-81
2022/06/10 08:15:47;;;;;;;7.82;1.30;;;;;;;;;;4975899;28;20039;-81
2022/06/10 08:18:15;;;;;;;2.80;1.15;;;;;;;;;;4960186;28;20031;-82
2022/06/10 08:23:27;;;;;;;5.55;1.40;;;;;;;;;;4976533;28;20034;-82
2022/06/10 08:25:54;;;;;;;4.72;1.25;;;;;;;;;;4977564;28;20027;-82
2022/06/10 08:28:21;;;;;;;3.65;1.10;;;;;;;;;;4976133;28;20019;-82
2022/06/10 08:30:46;;;;;;;5.45;1.33;;;;;;;;;;4975591;28;20372;-82
2022/06/10 08:33:11;;;;;;;4.43;1.83;;;;;;;;;;4977195;28;20035;-81
2022/06/10 08:35:37;;;;;;;4.32;1.42;;;;;;;;;;4976765;28;20081;-82
2022/06/10 08:38:04;;;;;;;4.75;1.70;;;;;;;;;;4976893;28;20031;-81
2022/06/10 08:40:39;;;;;;;2.40;1.10;;;;;;;;;;4975703;28;20118;-81
2022/06/10 08:43:39;;;;;;;4.53;1.73;;;;;;;;;;4976534;28;20062;-82
2022/06/10 08:46:35;;;;;;;11.35;2.08;;;;;;;;;;4955347;28;20046;-85
2022/06/10 08:49:24;;;;;;;11.10;2.83;;;;;;;;;;4976642;28;20106;-81
2022/06/10 08:52:08;;;;;;;12.45;2.53;;;;;;;;;;4975128;28;20034;-81
2022/06/10 08:54:48;;;;;;;6.50;1.90;;;;;;;;;;4975403;28;20435;-81
2022/06/10 08:57:37;;;;;;;10.23;2.10;;;;;;;;;;4975290;28;20030;-82
2022/06/10 09:00:27;;;;;;;7.75;2.47;;;;;;;;;;4975466;28;20387;-81
2022/06/10 09:03:11;;;;;;;6.18;1.77;;;;;;;;;;4975845;28;20030;-84
2022/06/10 09:05:40;;;;;;;9.55;2.38;;;;;;;;;;4976511;28;20034;-82
2022/06/10 09:08:13;;;;;;;12.07;2.00;;;;;;;;;;4975331;28;20176;-83
2022/06/10 09:10:42;;;;;;;4.43;1.80;;;;;;;;;;4976620;28;20031;-83
2022/06/10 09:13:14;;;;;;;6.15;1.83;;;;;;;;;;4975473;28;20041;-82
2022/06/10 09:15:54;;;;;;;4.78;1.65;;;;;;;;;;4975238;28;20034;-82
2022/06/10 09:18:30;;;;;;;8.13;2.05;;;;;;;;;;4975253;28;20019;-82
2022/06/10 09:21:08;;;;;;;7.00;1.90;;;;;;;;;;4974801;28;20023;-83
2022/06/10 09:23:43;;;;;;;6.28;1.80;;;;;;;;;;4974933;28;20498;-82
2022/06/10 09:26:28;;;;;;;6.22;1.70;;;;;;;;;;4959056;28;20440;-82
2022/06/10 09:28:55;;;;;;;4.93;1.70;;;;;;;;;;4960290;28;20434;-82
2022/06/10 09:31:37;;;;;;;4.45;1.50;;;;;;;;;;4974838;28;20034;-83
2022/06/10 09:34:34;;;;;;;4.80;1.70;;;;;;;;;;4975001;28;20050;-83
2022/06/10 09:37:21;;;;;;;3.75;1.45;;;;;;;;;;4964227;28;20483;-82
2022/06/10 09:43:17;;;;;;;3.42;1.35;;;;;;;;;;4977648;28;20054;-81
2022/06/10 09:45:49;;;;;;;3.20;1.40;;;;;;;;;;4977361;28;20031;-82
2022/06/10 09:48:57;;;;;;;4.60;1.48;;;;;;;;;;4975927;28;20065;-81
2022/06/10 09:51:23;;;;;;;3.33;1.67;;;;;;;;;;4919481;29;20076;-82
2022/06/10 09:54:18;;;;;;;4.47;1.55;;;;;;;;;;4919034;29;20498;-82
2022/06/10 09:56:54;;;;;;;2.97;1.20;;;;;;;;;;4955385;28;20038;-82
2022/06/10 09:59:35;;;;;;;4.30;1.67;;;;;;;;;;4975424;28;20031;-80
2022/06/10 10:02:32;;;;;;;6.20;2.08;;;;;;;;;;4974345;28;20450;-81
2022/06/10 10:05:03;;;;;;;6.05;1.60;;;;;;;;;;4973519;28;20038;-82
2022/06/10 10:07:38;;;;;;;5.75;1.60;;;;;;;;;;4975401;28;20034;-83
2022/06/10 10:10:28;;;;;;;6.10;1.90;;;;;;;;;;4957905;28;20391;-82
2022/06/10 10:13:12;;;;;;;5.00;1.95;;;;;;;;;;4974418;28;20084;-81
2022/06/10 10:15:38;;;;;;;3.92;1.45;;;;;;;;;;4975288;28;20475;-84
2022/06/10 10:18:07;;;;;;;4.53;1.65;;;;;;;;;;4973758;28;20023;-83
2022/06/10 10:20:56;;;;;;;5.95;1.60;;;;;;;;;;4975390;28;20172;-83
2022/06/10 10:23:26;;;;;;;6.50;1.70;;;;;;;;;;4976623;28;20062;-83
2022/06/10 10:25:51;;;;;;;3.65;1.60;;;;;;;;;;4962272;28;20058;-83
2022/06/10 10:28:23;;;;;;;4.25;1.70;;;;;;;;;;4976256;28;20034;-83
2022/06/10 10:31:04;;;;;;;7.25;1.73;;;;;;;;;;4975915;28;20522;-81
2022/06/10 10:33:29;;;;;;;3.78;1.42;;;;;;;;;;4977751;28;20031;-81
2022/06/10 10:35:57;;;;;;;3.80;1.60;;;;;;;;;;4975072;28;20030;-81
2022/06/10 10:38:35;;;;;;;5.20;1.77;;;;;;;;;;4975508;28;20026;-81
2022/06/10 10:41:12;;;;;;;3.33;1.50;;;;;;;;;;4975309;28;20027;-81
2022/06/10 10:43:38;;;;;;;3.03;1.42;;;;;;;;;;4975621;28;20410;-82
2022/06/10 10:46:07;;;;;;;5.95;1.85;;;;;;;;;;4975802;28;20032;-82
2022/06/10 10:48:35;;;;;;;7.88;1.75;;;;;;;;;;4976236;28;20045;-80
2022/06/10 10:51:15;;;;;;;7.47;2.03;;;;;;;;;;4975503;28;20046;-81
2022/06/10 10:53:54;;;;;;;4.53;1.50;;;;;;;;;;4958771;28;20022;-82
2022/06/10 10:56:32;;;;;;;8.68;1.27;;;;;;;;;;4975194;28;20106;-82
2022/06/10 10:58:58;;;;;;;3.33;1.35;;;;;;;;;;4974359;28;20355;-83
2022/06/10 11:01:43;;;;;;;4.95;1.52;;;;;;;;;;4974498;28;20023;-83
2022/06/10 11:04:16;;;;;;;4.97;1.63;;;;;;;;;;4974481;28;20153;-83
2022/06/10 11:06:42;;;;;;;4.17;1.80;;;;;;;;;;4957273;28;20126;-83
2022/06/10 11:09:22;;;;;;;1.88;1.17;;;;;;;;;;4957077;28;20113;-83
2022/06/10 11:11:49;;;;;;;2.45;1.35;;;;;;;;;;4973248;28;20129;-83
2022/06/10 11:14:32;;;;;;;3.95;1.40;;;;;;;;;;4973368;28;20419;-83
2022/06/10 11:17:11;;;;;;;3.83;1.50;;;;;;;;;;4976624;28;20034;-84
2022/06/10 11:19:37;;;;;;;4.15;1.40;;;;;;;;;;4978426;28;20027;-83
2022/06/10 11:22:02;;;;;;;3.10;1.30;;;;;;;;;;4978451;28;20034;-83
2022/06/10 11:24:40;;;;;;;3.90;1.75;;;;;;;;;;4976924;28;20026;-83
2022/06/10 11:27:31;;;;;;;5.63;1.60;;;;;;;;;;4978273;28;20023;-83
2022/06/10 11:30:05;;;;;;;1.85;1.20;;;;;;;;;;4976976;28;20169;-83
2022/06/10 11:32:40;;;;;;;4.93;1.50;;;;;;;;;;4978435;28;20062;-83
2022/06/10 11:35:27;;;;;;;2.97;1.30;;;;;;;;;;4977297;28;20027;-83
2022/06/10 11:37:55;;;;;;;6.13;1.92;;;;;;;;;;4976984;28;20022;-83
2022/06/10 11:40:26;;;;;;;2.30;1.35;;;;;;;;;;4978213;28;20042;-83
2022/06/10 11:43:15;;;;;;;2.85;1.40;;;;;;;;;;4976584;28;20048;-83
2022/06/10 11:46:15;;;;;;;2.60;1.50;;;;;;;;;;4977068;28;20077;-84
2022/06/10 11:48:54;;;;;;;2.47;1.27;;;;;;;;;;4978237;28;20530;-83
2022/06/10 11:51:27;;;;;;;3.78;1.50;;;;;;;;;;4977869;28;20434;-83
2022/06/10 11:54:29;;;;;;;3.13;1.48;;;;;;;;;;4976596;28;20037;-83
2022/06/10 12:00:23;;;;;;;5.65;1.60;;;;;;;;;;4977741;28;20037;-83
2022/06/10 12:03:22;;;;;;;2.42;1.20;;;;;;;;;;4977084;28;20501;-83
2022/06/10 12:05:59;;;;;;;4.28;1.30;;;;;;;;;;4981364;28;20041;-82
2022/06/10 12:08:33;;;;;;;2.67;1.20;;;;;;;;;;4977501;28;20173;-82
2022/06/10 12:11:20;;;;;;;2.38;1.00;;;;;;;;;;4976327;28;20146;-82
2022/06/10 12:14:00;;;;;;;6.60;1.40;;;;;;;;;;4975980;28;20035;-81
2022/06/10 12:16:26;;;;;;;2.17;1.30;;;;;;;;;;4977127;28;20102;-83
2022/06/10 12:18:52;;;;;;;11.00;2.35;;;;;;;;;;4976623;28;20061;-82
2022/06/10 12:21:20;;;;;;;5.88;1.55;;;;;;;;;;4976950;28;20475;-82
2022/06/10 12:23:47;;;;;;;9.88;1.67;;;;;;;;;;4960118;28;20162;-82
2022/06/10 12:26:18;;;;;;;5.20;1.50;;;;;;;;;;4975639;28;20035;-82
2022/06/10 12:28:49;;;;;;;7.65;1.48;;;;;;;;;;4977373;28;20031;-84
2022/06/10 12:31:21;;;;;;;2.72;1.05;;;;;;;;;;4975925;28;20027;-83
2022/06/10 12:33:51;;;;;;;3.83;1.55;;;;;;;;;;4976509;28;20591;-82
2022/06/10 12:36:21;;;;;;;4.07;1.30;;;;;;;;;;4976620;28;20300;-82
2022/06/10 12:38:49;;;;;;;7.47;1.23;;;;;;;;;;4976694;28;20037;-82
2022/06/10 12:41:19;;;;;;;2.47;1.05;;;;;;;;;;4976075;28;20039;-83
2022/06/10 12:43:48;;;;;;;5.63;1.48;;;;;;;;;;4976120;28;20042;-82
2022/06/10 12:46:42;;;;;;;7.10;1.45;;;;;;;;;;4977682;28;20048;-83
2022/06/10 12:49:25;;;;;;;2.13;1.02;;;;;;;;;;4976355;28;20168;-82
2022/06/10 12:52:28;;;;;;;4.05;0.95;;;;;;;;;;4976219;28;20026;-83
2022/06/10 12:55:20;;;;;;;1.60;1.30;;;;;;;;;;4977708;28;20030;-83
2022/06/10 12:57:47;;;;;;;1.67;1.10;;;;;;;;;;4977299;28;20037;-83
2022/06/10 13:00:18;;;;;;;3.00;1.30;;;;;;;;;;4978558;28;20030;-84
2022/06/10 13:03:05;;;;;;;6.22;1.58;;;;;;;;;;4978465;28;20023;-83
2022/06/10 13:05:31;;;;;;;2.60;1.10;;;;;;;;;;4975265;28;20033;-82
2022/06/10 13:07:57;;;;;;;2.10;1.05;;;;;;;;;;4976623;28;20109;-82
2022/06/10 13:10:28;;;;;;;3.15;1.50;;;;;;;;;;4975268;28;20034;-83
2022/06/10 13:12:58;;;;;;;3.25;1.25;;;;;;;;;;4976368;28;20038;-83
2022/06/10 13:15:26;;;;;;;2.45;1.02;;;;;;;;;;4975099;28;20415;-82
2022/06/10 13:18:03;;;;;;;2.20;0.90;;;;;;;;;;4976487;28;20113;-82
2022/06/10 13:20:29;;;;;;;3.17;1.42;;;;;;;;;;4958718;28;20026;-81
2022/06/10 13:23:13;;;;;;;2.80;1.13;;;;;;;;;;4975438;28;20352;-82
2022/06/10 13:25:38;;;;;;;;;;;;;;;;;;4975316;28;20022;-82
2022/06/10 13:28:13;;;;;;;4.78;1.35;;;;;;;;;;4976025;28;20264;-82
2022/06/10 13:30:38;;;;;;;2.45;0.95;;;;;;;;;;4974732;28;20081;-82
2022/06/10 13:33:10;;;;;;;2.72;1.20;;;;;;;;;;4975856;28;20035;-83
2022/06/10 13:35:45;;;;;;;2.25;1.40;;;;;;;;;;4958403;28;20070;-82
2022/06/10 13:38:16;;;;;;;1.95;1.08;;;;;;;;;;4973747;28;20472;-82
2022/06/10 13:41:48;;;;;;;1.10;1.00;;;;;;;;;;4974790;28;20035;-83
2022/06/10 13:43:41;;;;;;;2.25;1.25;;;;;;;;;;4974380;28;20047;-84
2022/06/10 13:46:29;;;;;;;2.08;1.27;;;;;;;;;;4958944;28;20082;-83
2022/06/10 13:49:18;;;;;;;1.52;1.00;;;;;;;;;;4974485;28;20081;-82
2022/06/10 13:51:49;;;;;;;1.98;1.00;;;;;;;;;;4975618;28;20058;-82
2022/06/10 13:54:24;;;;;;;1.70;1.10;;;;;;;;;;4974378;28;20085;-83
2022/06/10 13:56:50;;;;;;;1.83;1.10;;;;;;;;;;4974462;28;20105;-83
2022/06/10 13:59:30;;;;;;;3.72;1.42;;;;;;;;;;4974389;28;20085;-83
2022/06/10 14:01:59;;;;;;;1.80;1.00;;;;;;;;;;4974199;28;20022;-82
2022/06/10 14:04:27;;;;;;;1.65;1.20;;;;;;;;;;4957929;28;20050;-82
2022/06/10 14:06:57;;;;;;;2.28;1.30;;;;;;;;;;4974118;28;20085;-83
2022/06/10 14:09:34;;;;;;;2.67;1.25;;;;;;;;;;4973894;28;20118;-82
2022/06/10 14:12:09;;;;;;;1.70;1.08;;;;;;;;;;4974033;28;20035;-82
2022/06/10 14:14:38;;;;;;;1.38;0.93;;;;;;;;;;4973865;28;20031;-82
2022/06/10 14:17:19;;;;;;;1.13;0.90;;;;;;;;;;4973825;28;20023;-82
2022/06/10 14:19:50;;;;;;;3.08;1.00;;;;;;;;;;4975365;28;20034;-82
2022/06/10 14:22:31;;;;;;;1.63;1.10;;;;;;;;;;4975184;28;20105;-82
2022/06/10 14:25:12;;;;;;;1.65;1.10;;;;;;;;;;4974068;28;20029;-81
2022/06/10 14:27:38;;;;;;;1.23;1.10;;;;;;;;;;4975661;28;20034;-82
2022/06/10 14:30:15;;;;;;;2.25;1.35;;;;;;;;;;4976644;28;20110;-83
2022/06/10 14:32:53;;;;;;;1.02;0.90;;;;;;;;;;4976229;28;20022;-83
2022/06/10 14:35:37;;;;;;;2.13;1.00;;;;;;;;;;4976387;28;20057;-81
2022/06/10 14:38:12;;;;;;;1.65;1.10;;;;;;;;;;4975726;28;20030;-81
2022/06/10 14:40:53;;;;;;;1.48;1.10;;;;;;;;;;4977408;28;20045;-80
2022/06/10 14:43:22;;;;;;;1.70;1.10;;;;;;;;;;4976291;28;20051;-81
2022/06/10 14:46:01;;;;;;;3.97;1.60;;;;;;;;;;4978199;28;20042;-81
2022/06/10 14:48:28;;;;;;;1.20;1.10;;;;;;;;;;4961774;28;20037;-78
2022/06/10 14:51:19;;;;;;;2.63;1.52;;;;;;;;;;4976664;28;20494;-82
2022/06/10 14:54:26;;;;;;;2.75;1.35;;;;;;;;;;4977839;28;20035;-81
2022/06/10 14:56:52;;;;;;;2.38;1.30;;;;;;;;;;4954915;28;20038;-82
2022/06/10 14:59:23;;;;;;;8.43;1.80;;;;;;;;;;4973347;28;20027;-82
2022/06/10 15:01:54;;;;;;;9.40;1.60;;;;;;;;;;4973739;28;20106;-81
2022/06/10 15:04:20;;;;;;;3.83;1.50;;;;;;;;;;4974497;28;20027;-80
2022/06/10 15:06:48;;;;;;;2.42;1.25;;;;;;;;;;4957191;28;20027;-85
2022/06/10 15:09:15;;;;;;;3.25;1.65;;;;;;;;;;4957016;28;20070;-81
2022/06/10 15:11:41;;;;;;;3.60;1.73;;;;;;;;;;4957008;28;20070;-81
2022/06/10 15:14:06;;;;;;;2.45;1.25;;;;;;;;;;4973077;28;20042;-80
2022/06/10 15:16:32;;;;;;;3.15;1.63;;;;;;;;;;4973430;28;20494;-80
2022/06/10 15:18:57;;;;;;;2.78;1.30;;;;;;;;;;4973277;28;20102;-80
2022/06/10 15:21:31;;;;;;;11.90;1.70;;;;;;;;;;4956998;28;20110;-81
2022/06/10 15:23:57;;;;;;;4.55;1.60;;;;;;;;;;4957136;28;20035;-80
2022/06/10 15:26:28;;;;;;;10.43;1.50;;;;;;;;;;4973001;28;20031;-81
2022/06/10 15:28:54;;;;;;;3.78;1.42;;;;;;;;;;4973587;28;20117;-80